createdAt,value
2022-09-18T00:01:26.809Z,8.90
2022-09-18T00:03:59.165Z,9.00
2022-09-18T00:06:29.497Z,9.00
2022-09-18T00:08:58.268Z,9.10
2022-09-18T00:11:27.845Z,9.00
2022-09-18T00:13:55.449Z,9.00
2022-09-18T00:16:23.727Z,9.00
2022-09-18T00:18:50.647Z,9.00
2022-09-18T00:21:20.163Z,9.00
2022-09-18T00:23:48.012Z,9.00
2022-09-18T00:26:16.559Z,9.00
2022-09-18T00:28:43.928Z,9.00
2022-09-18T00:31:16.720Z,9.00
2022-09-18T00:33:44.054Z,9.00
2022-09-18T00:36:14.256Z,9.00
2022-09-18T00:38:41.712Z,9.00
2022-09-18T00:41:13.953Z,9.00
2022-09-18T00:43:41.118Z,9.00
2022-09-18T00:46:27.065Z,8.90
2022-09-18T00:49:27.039Z,8.90
2022-09-18T00:51:57.340Z,9.10
2022-09-18T00:54:32.686Z,9.20
2022-09-18T00:57:01.751Z,9.30
2022-09-18T00:59:31.508Z,9.20
2022-09-18T01:01:59.982Z,9.20
2022-09-18T01:04:31.202Z,9.20
2022-09-18T01:07:21.787Z,9.20
2022-09-18T01:10:07.591Z,9.10
2022-09-18T01:12:37.167Z,9.00
2022-09-18T01:15:39.879Z,8.90
2022-09-18T01:18:21.908Z,8.90
2022-09-18T01:21:09.315Z,8.80
2022-09-18T01:23:57.961Z,8.90
2022-09-18T01:26:48.790Z,8.80
2022-09-18T01:29:18.766Z,8.80
2022-09-18T01:31:59.034Z,8.80
2022-09-18T01:34:52.046Z,8.80
2022-09-18T01:37:26.117Z,8.80
2022-09-18T01:40:00.313Z,8.80
2022-09-18T01:42:30.094Z,8.80
2022-09-18T01:45:02.180Z,8.80
2022-09-18T01:47:34.629Z,8.80
2022-09-18T01:50:03.360Z,8.80
2022-09-18T01:52:42.104Z,8.90
2022-09-18T01:55:15.311Z,8.90
2022-09-18T01:57:55.782Z,8.80
2022-09-18T02:00:23.113Z,8.80
2022-09-18T02:02:52.557Z,8.70
2022-09-18T02:05:28.492Z,8.70
2022-09-18T02:08:38.626Z,8.60
2022-09-18T02:11:12.042Z,8.70
2022-09-18T02:13:45.199Z,8.60
2022-09-18T02:16:56.723Z,8.50
2022-09-18T02:19:32.745Z,8.50
2022-09-18T02:22:01.910Z,8.40
2022-09-18T02:24:33.736Z,8.50
2022-09-18T02:27:03.516Z,8.50
2022-09-18T02:29:31.458Z,8.40
2022-09-18T02:32:02.203Z,8.40
2022-09-18T02:34:30.730Z,8.40
2022-09-18T02:37:27.900Z,8.40
2022-09-18T02:40:28.075Z,8.50
2022-09-18T02:43:33.169Z,8.50
2022-09-18T02:46:06.865Z,8.50
2022-09-18T02:49:08.000Z,8.50
2022-09-18T02:51:41.714Z,8.50
2022-09-18T02:54:18.393Z,8.60
2022-09-18T02:57:02.359Z,8.60
2022-09-18T02:59:40.153Z,8.60
2022-09-18T03:02:09.352Z,8.60
2022-09-18T03:04:38.372Z,8.60
2022-09-18T03:07:09.897Z,8.60
2022-09-18T03:09:41.509Z,8.70
2022-09-18T03:12:08.909Z,8.70
2022-09-18T03:14:41.024Z,8.80
2022-09-18T03:17:09.207Z,8.70
2022-09-18T03:19:35.982Z,8.70
2022-09-18T03:22:03.517Z,8.80
2022-09-18T03:24:34.086Z,8.80
2022-09-18T03:27:02.859Z,8.80
2022-09-18T03:29:29.977Z,8.80
2022-09-18T03:31:57.538Z,8.90
2022-09-18T03:34:24.639Z,8.90
2022-09-18T03:36:51.638Z,9.00
2022-09-18T03:39:19.270Z,9.00
2022-09-18T03:41:47.377Z,9.00
2022-09-18T03:44:14.230Z,9.10
2022-09-18T03:46:43.014Z,9.10
2022-09-18T03:49:09.838Z,9.10
2022-09-18T03:51:38.984Z,9.10
2022-09-18T03:54:07.049Z,9.10
2022-09-18T03:57:09.023Z,9.20
2022-09-18T03:59:53.980Z,9.20
2022-09-18T04:02:42.989Z,9.30
2022-09-18T04:05:33.243Z,9.30
2022-09-18T04:08:18.482Z,9.30
2022-09-18T04:11:06.167Z,9.30
2022-09-18T04:13:34.847Z,9.30
2022-09-18T04:16:07.176Z,9.20
2022-09-18T04:18:34.254Z,9.40
2022-09-18T04:21:02.359Z,9.50
2022-09-18T04:23:29.404Z,9.40
2022-09-18T04:25:57.163Z,9.30
2022-09-18T04:28:28.813Z,9.20
2022-09-18T04:30:55.814Z,9.20
2022-09-18T04:33:23.102Z,9.10
2022-09-18T04:35:49.976Z,9.00
2022-09-18T04:38:16.867Z,9.00
2022-09-18T04:40:43.720Z,9.00
2022-09-18T04:43:11.681Z,9.00
2022-09-18T04:45:40.202Z,9.00
2022-09-18T04:48:07.009Z,9.00
2022-09-18T04:50:33.929Z,9.00
2022-09-18T04:53:11.339Z,9.00
2022-09-18T04:55:39.459Z,9.00
2022-09-18T04:58:09.537Z,9.00
2022-09-18T05:00:38.258Z,9.10
2022-09-18T05:03:06.488Z,9.20
2022-09-18T05:05:36.085Z,9.20
2022-09-18T05:08:04.557Z,9.20
2022-09-18T05:10:32.070Z,9.40
2022-09-18T05:13:00.061Z,9.30
2022-09-18T05:15:28.360Z,9.40
2022-09-18T05:18:00.846Z,9.40
2022-09-18T05:20:28.660Z,9.40
2022-09-18T05:23:00.870Z,9.40
2022-09-18T05:25:29.056Z,9.50
2022-09-18T05:27:57.793Z,9.50
2022-09-18T05:30:29.124Z,9.50
2022-09-18T05:33:04.558Z,9.60
2022-09-18T05:35:34.398Z,9.70
2022-09-18T05:38:01.986Z,9.70
2022-09-18T05:40:34.310Z,9.70
2022-09-18T05:43:03.127Z,9.80
2022-09-18T05:45:32.535Z,9.80
2022-09-18T05:48:02.963Z,9.80
2022-09-18T05:50:31.644Z,9.80
2022-09-18T05:53:08.299Z,9.80
2022-09-18T05:56:01.222Z,9.90
2022-09-18T05:58:30.466Z,9.90
2022-09-18T06:00:59.258Z,10.00
2022-09-18T06:03:33.063Z,10.00
2022-09-18T06:06:02.005Z,10.10
2022-09-18T06:08:28.905Z,10.10
2022-09-18T06:11:01.349Z,10.10
2022-09-18T06:13:32.678Z,10.20
2022-09-18T06:15:59.886Z,10.20
2022-09-18T06:18:51.102Z,10.30
2022-09-18T06:21:18.043Z,10.30
2022-09-18T06:23:44.950Z,10.30
2022-09-18T06:26:23.987Z,10.30
2022-09-18T06:28:51.519Z,10.30
2022-09-18T06:31:18.485Z,10.30
2022-09-18T06:34:11.546Z,10.30
2022-09-18T06:36:40.079Z,10.30
2022-09-18T06:39:45.598Z,10.30
2022-09-18T06:42:25.526Z,10.40
2022-09-18T06:45:13.024Z,10.40
2022-09-18T06:47:40.038Z,10.40
2022-09-18T06:50:08.948Z,10.40
2022-09-18T06:52:35.785Z,10.40
2022-09-18T06:55:05.422Z,10.40
2022-09-18T06:57:33.146Z,10.30
2022-09-18T06:59:59.953Z,10.40
2022-09-18T07:02:28.926Z,10.50
2022-09-18T07:05:27.476Z,10.50
2022-09-18T07:07:54.425Z,10.50
2022-09-18T07:10:22.848Z,10.60
2022-09-18T07:12:49.982Z,10.60
2022-09-18T07:15:20.024Z,10.60
2022-09-18T07:17:46.900Z,10.70
2022-09-18T07:20:16.611Z,10.70
2022-09-18T07:22:51.726Z,10.80
2022-09-18T07:25:18.709Z,10.80
2022-09-18T07:27:45.717Z,10.80
2022-09-18T07:30:14.796Z,10.80
2022-09-18T07:32:42.363Z,10.80
2022-09-18T07:35:14.357Z,10.90
2022-09-18T07:37:42.437Z,10.90
2022-09-18T07:40:14.866Z,10.90
2022-09-18T07:43:07.474Z,10.90
2022-09-18T07:45:35.614Z,10.90
2022-09-18T07:48:04.410Z,10.90
2022-09-18T07:50:35.462Z,11.00
2022-09-18T07:53:05.237Z,11.00
2022-09-18T07:55:39.628Z,11.00
2022-09-18T07:58:07.353Z,11.00
2022-09-18T08:00:53.036Z,11.00
2022-09-18T08:03:21.528Z,11.00
2022-09-18T08:06:07.360Z,11.00
2022-09-18T08:08:36.241Z,11.00
2022-09-18T08:11:13.195Z,11.00
2022-09-18T08:14:18.488Z,11.10
2022-09-18T08:17:03.753Z,11.00
2022-09-18T08:19:39.172Z,10.90
2022-09-18T08:22:14.599Z,11.00
2022-09-18T08:24:47.533Z,11.00
2022-09-18T08:27:14.784Z,11.00
2022-09-18T08:29:42.305Z,11.00
2022-09-18T08:32:10.627Z,11.00
2022-09-18T08:34:38.189Z,11.00
2022-09-18T08:37:05.362Z,11.10
2022-09-18T08:39:50.773Z,11.00
2022-09-18T08:42:47.218Z,11.10
2022-09-18T08:45:17.203Z,11.10
2022-09-18T08:48:00.320Z,11.20
2022-09-18T08:50:38.352Z,11.10
2022-09-18T08:53:30.443Z,11.10
2022-09-18T08:56:21.299Z,11.20
2022-09-18T08:59:26.489Z,11.20
2022-09-18T09:02:28.244Z,11.20
2022-09-18T09:05:01.496Z,11.20
2022-09-18T09:07:50.575Z,11.20
2022-09-18T09:10:17.742Z,11.30
2022-09-18T09:13:21.037Z,11.30
2022-09-18T09:16:03.064Z,11.20
2022-09-18T09:18:36.702Z,11.20
2022-09-18T09:21:20.736Z,11.20
2022-09-18T09:23:56.385Z,11.30
2022-09-18T09:26:57.009Z,11.40
2022-09-18T09:30:01.638Z,11.30
2022-09-18T09:33:04.722Z,11.30
2022-09-18T09:36:13.579Z,11.20
2022-09-18T09:39:08.903Z,11.20
2022-09-18T09:41:46.838Z,11.20
2022-09-18T09:44:30.414Z,11.20
2022-09-18T09:47:04.381Z,11.20
2022-09-18T09:49:50.727Z,11.10
2022-09-18T09:52:31.718Z,11.10
2022-09-18T09:55:19.734Z,11.00
2022-09-18T09:58:18.143Z,10.90
2022-09-18T10:00:48.906Z,10.90
2022-09-18T10:03:52.544Z,10.90
2022-09-18T10:07:05.130Z,10.90
2022-09-18T10:09:57.362Z,10.90
2022-09-18T10:12:45.522Z,11.00
2022-09-18T10:15:45.191Z,10.90
2022-09-18T10:18:20.881Z,10.90
2022-09-18T10:20:51.438Z,10.90
2022-09-18T10:23:35.128Z,11.00
2022-09-18T10:26:03.643Z,11.00
2022-09-18T10:28:32.679Z,10.90
2022-09-18T10:31:12.161Z,10.90
2022-09-18T10:33:47.506Z,10.90
2022-09-18T10:36:38.048Z,10.80
2022-09-18T10:39:31.979Z,10.90
2022-09-18T10:42:07.167Z,10.90
2022-09-18T10:44:39.890Z,11.00
2022-09-18T10:47:18.403Z,11.00
2022-09-18T10:49:59.270Z,11.00
2022-09-18T10:52:35.091Z,11.10
2022-09-18T10:55:18.271Z,11.20
2022-09-18T10:58:15.614Z,11.30
2022-09-18T11:01:01.371Z,11.30
2022-09-18T11:03:59.520Z,11.30
2022-09-18T11:06:32.571Z,11.40
2022-09-18T11:09:10.801Z,11.40
2022-09-18T11:11:46.374Z,11.40
2022-09-18T11:14:26.179Z,11.50
2022-09-18T11:17:00.778Z,11.50
2022-09-18T11:19:36.178Z,11.60
2022-09-18T11:22:32.495Z,11.60
2022-09-18T11:25:16.436Z,11.50
2022-09-18T11:27:51.757Z,11.60
2022-09-18T11:30:27.938Z,11.70
2022-09-18T11:33:15.899Z,11.60
2022-09-18T11:35:49.039Z,11.70
2022-09-18T11:38:19.606Z,11.80
2022-09-18T11:40:51.768Z,11.80
2022-09-18T11:43:26.045Z,11.80
2022-09-18T11:46:25.768Z,11.80
2022-09-18T11:49:02.554Z,11.80
2022-09-18T11:51:55.398Z,11.80
2022-09-18T11:54:40.133Z,11.90
2022-09-18T11:57:18.296Z,11.90
2022-09-18T11:59:55.313Z,12.10
2022-09-18T12:02:46.858Z,12.20
2022-09-18T12:05:41.686Z,12.30
2022-09-18T12:08:26.187Z,12.30
2022-09-18T12:11:08.322Z,12.30
2022-09-18T12:13:54.268Z,12.10
2022-09-18T12:16:30.666Z,12.00
2022-09-18T12:19:13.885Z,12.00
2022-09-18T12:22:08.293Z,12.10
2022-09-18T12:24:35.424Z,12.10
2022-09-18T12:27:14.854Z,12.30
2022-09-18T12:30:19.351Z,12.40
2022-09-18T12:33:37.160Z,12.40
2022-09-18T12:36:29.864Z,12.50
2022-09-18T12:39:21.589Z,12.30
2022-09-18T12:41:57.502Z,12.40
2022-09-18T12:44:39.576Z,12.40
2022-09-18T12:47:16.613Z,12.40
2022-09-18T12:50:12.072Z,12.40
2022-09-18T12:52:55.514Z,12.30
2022-09-18T12:55:43.716Z,12.30
2022-09-18T12:58:29.056Z,12.40
2022-09-18T13:01:01.779Z,12.40
2022-09-18T13:03:38.820Z,12.50
2022-09-18T13:06:15.269Z,12.70
2022-09-18T13:08:50.221Z,12.80
2022-09-18T13:11:42.921Z,12.90
2022-09-18T13:14:16.473Z,13.00
2022-09-18T13:16:50.736Z,13.00
2022-09-18T13:19:33.321Z,13.10
2022-09-18T13:22:05.737Z,13.20
2022-09-18T13:24:39.118Z,13.20
2022-09-18T13:27:11.874Z,13.20
2022-09-18T13:29:50.722Z,13.00
2022-09-18T13:32:19.940Z,13.00
2022-09-18T13:35:16.212Z,13.10
2022-09-18T13:37:43.329Z,13.00
2022-09-18T13:40:37.434Z,13.00
2022-09-18T13:43:27.585Z,13.10
2022-09-18T13:46:02.452Z,12.90
2022-09-18T13:48:40.710Z,12.80
2022-09-18T13:51:10.595Z,12.70
2022-09-18T13:53:40.433Z,12.70
2022-09-18T13:56:13.018Z,12.70
2022-09-18T13:58:50.112Z,12.70
2022-09-18T14:01:42.244Z,12.70
2022-09-18T14:04:39.933Z,12.80
2022-09-18T14:07:26.993Z,12.90
2022-09-18T14:10:21.006Z,13.00
2022-09-18T14:13:06.326Z,13.00
2022-09-18T14:15:33.447Z,12.90
2022-09-18T14:18:16.756Z,12.80
2022-09-18T14:20:49.893Z,12.80
2022-09-18T14:23:35.612Z,12.70
2022-09-18T14:26:08.363Z,12.80
2022-09-18T14:28:36.474Z,12.80
2022-09-18T14:31:15.242Z,12.70
2022-09-18T14:33:43.586Z,12.60
2022-09-18T14:36:14.616Z,12.50
2022-09-18T14:38:41.846Z,12.20
2022-09-18T14:41:21.588Z,12.00
2022-09-18T14:43:53.192Z,11.60
2022-09-18T14:46:23.740Z,11.40
2022-09-18T14:48:51.390Z,11.20
2022-09-18T14:51:22.593Z,11.10
2022-09-18T14:53:52.677Z,11.00
2022-09-18T14:56:36.000Z,11.10
2022-09-18T14:59:08.444Z,11.10
2022-09-18T15:01:37.430Z,11.20
2022-09-18T15:04:06.854Z,11.30
